createdAt,value
2022-11-28T00:01:09.873Z,8.38
2022-11-28T00:03:36.259Z,8.39
2022-11-28T00:06:07.408Z,8.40
2022-11-28T00:08:35.218Z,8.41
2022-11-28T00:11:06.621Z,8.38
2022-11-28T00:13:34.282Z,8.35
2022-11-28T00:16:02.645Z,8.35
2022-11-28T00:18:29.486Z,8.37
2022-11-28T00:21:01.060Z,8.31
2022-11-28T00:23:28.093Z,8.30
2022-11-28T00:25:59.271Z,8.28
2022-11-28T00:28:25.722Z,8.30
2022-11-28T00:30:52.225Z,8.34
2022-11-28T00:33:18.659Z,8.36
2022-11-28T00:35:45.015Z,8.39
2022-11-28T00:38:11.417Z,8.41
2022-11-28T00:40:37.909Z,8.34
2022-11-28T00:43:04.382Z,8.32
2022-11-28T00:45:31.037Z,8.31
2022-11-28T00:47:57.496Z,8.30
2022-11-28T00:50:25.146Z,8.32
2022-11-28T00:52:51.669Z,8.34
2022-11-28T00:55:18.101Z,8.37
2022-11-28T00:57:44.527Z,8.35
2022-11-28T01:00:11.381Z,8.31
2022-11-28T01:02:37.879Z,8.27
2022-11-28T01:05:04.598Z,8.27
2022-11-28T01:07:33.128Z,8.31
2022-11-28T01:09:59.562Z,8.32
2022-11-28T01:12:25.936Z,8.34
2022-11-28T01:14:53.503Z,8.33
2022-11-28T01:17:19.839Z,8.33
2022-11-28T01:19:46.305Z,8.31
2022-11-28T01:22:12.801Z,8.34
2022-11-28T01:24:39.434Z,8.35
2022-11-28T01:27:06.218Z,8.38
2022-11-28T01:29:32.664Z,8.38
2022-11-28T01:32:00.051Z,8.38
2022-11-28T01:34:26.828Z,8.40
2022-11-28T01:36:53.166Z,8.41
2022-11-28T01:39:20.904Z,8.41
2022-11-28T01:41:47.666Z,8.41
2022-11-28T01:44:13.965Z,8.42
2022-11-28T01:46:40.642Z,8.41
2022-11-28T01:49:17.572Z,8.40
2022-11-28T01:52:00.906Z,8.39
2022-11-28T01:54:29.529Z,8.40
2022-11-28T01:57:02.902Z,8.41
2022-11-28T01:59:35.243Z,8.38
2022-11-28T02:02:06.309Z,8.37
2022-11-28T02:04:34.354Z,8.37
2022-11-28T02:07:00.934Z,8.37
2022-11-28T02:09:27.429Z,8.36
2022-11-28T02:12:21.623Z,8.34
2022-11-28T02:14:53.813Z,8.32
2022-11-28T02:17:43.930Z,8.32
2022-11-28T02:20:28.372Z,8.32
2022-11-28T02:22:59.538Z,8.32
2022-11-28T02:26:07.513Z,8.31
2022-11-28T02:29:19.087Z,8.28
2022-11-28T02:32:15.211Z,8.25
2022-11-28T02:35:16.729Z,8.26
2022-11-28T02:38:01.723Z,8.25
2022-11-28T02:40:37.690Z,8.26
2022-11-28T02:43:08.124Z,8.25
2022-11-28T02:45:43.552Z,8.22
2022-11-28T02:48:24.224Z,8.21
2022-11-28T02:51:01.210Z,8.19
2022-11-28T02:53:31.970Z,8.18
2022-11-28T02:55:59.691Z,8.17
2022-11-28T02:58:26.511Z,8.20
2022-11-28T03:00:53.262Z,8.20
2022-11-28T03:03:41.128Z,8.22
2022-11-28T03:06:22.921Z,8.22
2022-11-28T03:09:18.177Z,8.20
2022-11-28T03:12:15.500Z,8.16
2022-11-28T03:14:54.849Z,8.17
2022-11-28T03:17:25.056Z,8.18
2022-11-28T03:20:20.844Z,8.20
2022-11-28T03:23:02.862Z,8.21
2022-11-28T03:25:47.623Z,8.21
2022-11-28T03:28:23.072Z,8.21
2022-11-28T03:30:54.855Z,8.23
2022-11-28T03:33:25.271Z,8.24
2022-11-28T03:35:58.150Z,8.25
2022-11-28T03:38:34.283Z,8.26
2022-11-28T03:41:06.987Z,8.28
2022-11-28T03:43:40.182Z,8.28
2022-11-28T03:46:11.568Z,8.27
2022-11-28T03:48:54.505Z,8.24
2022-11-28T03:51:29.073Z,8.23
2022-11-28T03:54:08.076Z,8.23
2022-11-28T03:56:45.743Z,8.22
2022-11-28T03:59:25.618Z,8.21
2022-11-28T04:01:54.891Z,8.25
2022-11-28T04:04:47.524Z,8.24
2022-11-28T04:07:23.461Z,8.22
2022-11-28T04:10:00.443Z,8.17
2022-11-28T04:12:39.954Z,8.17
2022-11-28T04:15:11.948Z,8.13
2022-11-28T04:17:49.666Z,8.08
2022-11-28T04:20:27.855Z,8.10
2022-11-28T04:23:00.923Z,8.09
2022-11-28T04:25:29.766Z,8.11
2022-11-28T04:28:01.437Z,8.12
2022-11-28T04:30:28.015Z,8.14
2022-11-28T04:32:59.383Z,8.15
2022-11-28T04:35:32.457Z,8.16
2022-11-28T04:38:01.542Z,8.15
2022-11-28T04:40:31.770Z,8.09
2022-11-28T04:43:02.965Z,8.04
2022-11-28T04:45:34.313Z,7.95
2022-11-28T04:48:01.753Z,7.88
2022-11-28T04:50:41.099Z,7.92
2022-11-28T04:53:19.451Z,7.95
2022-11-28T04:55:57.938Z,7.94
2022-11-28T04:58:43.418Z,7.93
2022-11-28T05:01:15.574Z,7.94
2022-11-28T05:03:42.980Z,7.99
2022-11-28T05:06:09.696Z,8.00
2022-11-28T05:08:36.151Z,8.02
2022-11-28T05:11:02.657Z,8.05
2022-11-28T05:13:29.044Z,8.04
2022-11-28T05:15:55.436Z,8.02
2022-11-28T05:18:21.913Z,8.01
2022-11-28T05:20:48.525Z,7.99
2022-11-28T05:23:14.893Z,7.91
2022-11-28T05:25:41.324Z,7.81
2022-11-28T05:28:08.644Z,7.80
2022-11-28T05:30:35.080Z,7.81
2022-11-28T05:33:02.051Z,7.84
2022-11-28T05:35:28.478Z,7.82
2022-11-28T05:37:54.927Z,7.81
2022-11-28T05:40:21.263Z,7.69
2022-11-28T05:42:47.676Z,7.60
2022-11-28T05:45:14.132Z,7.57
2022-11-28T05:47:40.534Z,7.62
2022-11-28T05:50:08.126Z,7.66
2022-11-28T05:52:34.534Z,7.57
2022-11-28T05:55:01.547Z,7.57
2022-11-28T05:57:29.893Z,7.57
2022-11-28T05:59:56.711Z,7.55
2022-11-28T06:02:23.412Z,7.54
2022-11-28T06:04:49.912Z,7.60
2022-11-28T06:07:16.424Z,7.68
2022-11-28T06:09:43.166Z,7.74
2022-11-28T06:12:09.666Z,7.79
2022-11-28T06:14:36.142Z,7.83
2022-11-28T06:17:02.564Z,7.83
2022-11-28T06:19:29.106Z,7.86
2022-11-28T06:21:56.381Z,7.87
2022-11-28T06:24:22.962Z,7.90
2022-11-28T06:26:49.311Z,7.87
2022-11-28T06:29:15.843Z,7.88
2022-11-28T06:31:42.261Z,7.80
2022-11-28T06:34:11.704Z,7.82
2022-11-28T06:36:38.133Z,7.82
2022-11-28T06:39:05.186Z,7.88
2022-11-28T06:41:31.621Z,7.91
2022-11-28T06:43:58.005Z,7.91
2022-11-28T06:46:24.449Z,7.92
2022-11-28T06:48:52.195Z,7.91
2022-11-28T06:51:19.700Z,7.92
2022-11-28T06:53:46.055Z,7.93
2022-11-28T06:56:16.563Z,7.94
2022-11-28T06:58:44.031Z,7.92
2022-11-28T07:01:14.070Z,7.91
2022-11-28T07:03:41.092Z,7.97
2022-11-28T07:06:08.803Z,7.96
2022-11-28T07:08:35.511Z,7.97
2022-11-28T07:11:15.848Z,7.98
2022-11-28T07:13:43.639Z,7.97
2022-11-28T07:16:27.497Z,7.99
2022-11-28T07:18:56.871Z,7.98
2022-11-28T07:21:24.017Z,7.92
2022-11-28T07:23:51.093Z,7.87
2022-11-28T07:26:19.191Z,7.87
2022-11-28T07:28:46.428Z,7.75
2022-11-28T07:31:18.737Z,7.80
2022-11-28T07:33:47.695Z,7.84
2022-11-28T07:36:20.450Z,7.84
2022-11-28T07:38:48.672Z,7.82
2022-11-28T07:41:15.961Z,7.85
2022-11-28T07:43:44.120Z,7.88
2022-11-28T07:46:13.830Z,7.92
2022-11-28T07:48:40.719Z,7.93
2022-11-28T07:51:12.030Z,7.98
2022-11-28T07:53:39.611Z,8.03
2022-11-28T07:56:08.914Z,8.10
2022-11-28T07:58:36.470Z,8.14
2022-11-28T08:01:23.896Z,8.18
2022-11-28T08:03:52.267Z,8.18
2022-11-28T08:06:21.978Z,8.21
2022-11-28T08:08:49.449Z,8.22
2022-11-28T08:11:17.242Z,8.25
2022-11-28T08:13:44.572Z,8.27
2022-11-28T08:16:16.940Z,8.27
2022-11-28T08:18:44.307Z,8.22
2022-11-28T08:21:12.313Z,8.21
2022-11-28T08:23:39.832Z,8.22
2022-11-28T08:26:08.885Z,8.24
2022-11-28T08:28:35.974Z,8.25
2022-11-28T08:31:33.222Z,8.25
2022-11-28T08:34:01.971Z,8.25
2022-11-28T08:36:29.517Z,8.23
2022-11-28T08:39:16.557Z,8.15
2022-11-28T08:41:43.165Z,8.07
2022-11-28T08:44:09.515Z,8.13
2022-11-28T08:46:36.610Z,8.17
2022-11-28T08:49:04.590Z,8.24
2022-11-28T08:51:31.437Z,8.30
2022-11-28T08:53:59.720Z,8.37
2022-11-28T08:56:26.830Z,8.38
2022-11-28T08:58:53.386Z,8.36
2022-11-28T09:01:22.567Z,8.26
2022-11-28T09:03:50.005Z,8.27
2022-11-28T09:06:17.883Z,8.31
2022-11-28T09:08:45.082Z,8.34
2022-11-28T09:11:14.169Z,8.35
2022-11-28T09:13:40.859Z,8.35
2022-11-28T09:16:07.639Z,8.33
2022-11-28T09:18:34.378Z,8.39
2022-11-28T09:21:02.053Z,8.43
2022-11-28T09:23:29.211Z,8.42
2022-11-28T09:25:56.170Z,8.37
2022-11-28T09:28:23.763Z,8.40
2022-11-28T09:30:50.407Z,8.33
2022-11-28T09:33:16.796Z,8.34
2022-11-28T09:35:43.306Z,8.38
2022-11-28T09:38:09.670Z,8.37
2022-11-28T09:40:42.391Z,8.41
2022-11-28T09:43:16.947Z,8.42
2022-11-28T09:45:45.422Z,8.44
2022-11-28T09:48:30.204Z,8.44
2022-11-28T09:51:06.178Z,8.46
2022-11-28T09:53:44.897Z,8.41
2022-11-28T09:56:15.570Z,8.44
2022-11-28T09:58:57.817Z,8.44
2022-11-28T10:01:26.864Z,8.43
2022-11-28T10:04:02.917Z,8.38
2022-11-28T10:07:04.552Z,8.31
2022-11-28T10:09:46.988Z,8.25
2022-11-28T10:12:32.285Z,8.19
2022-11-28T10:15:14.135Z,8.09
2022-11-28T10:17:44.277Z,8.12
2022-11-28T10:20:32.980Z,8.15
2022-11-28T10:23:05.299Z,8.20
2022-11-28T10:25:51.195Z,8.24
2022-11-28T10:28:29.631Z,8.30
2022-11-28T10:31:12.301Z,8.25
2022-11-28T10:33:50.159Z,8.18
2022-11-28T10:36:28.143Z,8.18
2022-11-28T10:38:54.568Z,8.17
2022-11-28T10:41:28.719Z,8.20
2022-11-28T10:44:28.869Z,8.25
2022-11-28T10:47:05.754Z,8.26
2022-11-28T10:49:52.594Z,8.21
2022-11-28T10:52:57.002Z,8.20
2022-11-28T10:55:41.513Z,8.24
2022-11-28T10:58:15.343Z,8.34
2022-11-28T11:00:45.380Z,8.41
2022-11-28T11:03:15.365Z,8.40
2022-11-28T11:05:42.403Z,8.44
2022-11-28T11:08:08.748Z,8.46
2022-11-28T11:10:51.885Z,8.41
2022-11-28T11:13:24.861Z,8.42
2022-11-28T11:15:59.208Z,8.47
2022-11-28T11:18:28.645Z,8.50
2022-11-28T11:21:14.589Z,8.53
2022-11-28T11:23:41.567Z,8.55
2022-11-28T11:26:33.248Z,8.52
2022-11-28T11:29:01.494Z,8.50
2022-11-28T11:31:31.569Z,8.47
2022-11-28T11:34:15.655Z,8.46
2022-11-28T11:36:42.456Z,8.47
2022-11-28T11:39:12.257Z,8.42
2022-11-28T11:41:41.335Z,8.41
2022-11-28T11:44:13.618Z,8.44
2022-11-28T11:47:08.739Z,8.43
2022-11-28T11:49:44.331Z,8.39
2022-11-28T11:52:22.678Z,8.40
2022-11-28T11:54:57.228Z,8.43
2022-11-28T11:57:49.695Z,8.46
2022-11-28T12:00:21.146Z,8.49
2022-11-28T12:03:03.108Z,8.47
2022-11-28T12:06:12.723Z,8.43
2022-11-28T12:08:43.446Z,8.41
2022-11-28T12:11:31.419Z,8.44
2022-11-28T12:14:04.690Z,8.41
2022-11-28T12:16:50.471Z,8.43
2022-11-28T12:19:34.389Z,8.43
2022-11-28T12:22:25.757Z,8.41
2022-11-28T12:25:04.921Z,8.42
2022-11-28T12:27:53.464Z,8.41
2022-11-28T12:30:43.375Z,8.40
2022-11-28T12:33:20.727Z,8.35
2022-11-28T12:36:14.804Z,8.36
2022-11-28T12:39:18.374Z,8.38
2022-11-28T12:42:18.978Z,8.38
2022-11-28T12:45:07.111Z,8.38
2022-11-28T12:48:01.966Z,8.37
2022-11-28T12:50:35.537Z,8.39
2022-11-28T12:53:16.768Z,8.39
2022-11-28T12:55:52.426Z,8.38
2022-11-28T12:58:40.660Z,8.40
2022-11-28T13:01:53.257Z,8.40
2022-11-28T13:04:56.987Z,8.36
2022-11-28T13:07:51.950Z,8.30
2022-11-28T13:10:28.873Z,8.27
2022-11-28T13:13:06.680Z,8.23
2022-11-28T13:15:48.080Z,8.23
2022-11-28T13:18:28.848Z,8.22
2022-11-28T13:21:09.747Z,8.24
2022-11-28T13:23:50.988Z,8.24
2022-11-28T13:26:42.602Z,8.21
2022-11-28T13:29:12.037Z,8.20
2022-11-28T13:31:49.815Z,8.20
2022-11-28T13:34:18.218Z,8.15
2022-11-28T13:40:19.783Z,8.09
2022-11-28T13:43:06.556Z,8.11
2022-11-28T13:45:52.711Z,8.10
2022-11-28T13:49:06.145Z,8.09
2022-11-28T13:51:30.602Z,8.09
2022-11-28T13:54:16.900Z,8.11
2022-11-28T13:56:49.007Z,8.11
2022-11-28T13:59:25.947Z,8.08
2022-11-28T14:01:58.439Z,8.06
2022-11-28T14:04:27.787Z,8.03
2022-11-28T14:07:02.221Z,8.01
2022-11-28T14:09:47.682Z,8.00
2022-11-28T14:12:26.769Z,8.00
2022-11-28T14:15:01.492Z,7.94
2022-11-28T14:17:38.029Z,7.88
2022-11-28T14:20:24.359Z,7.87
2022-11-28T14:23:20.192Z,7.87
2022-11-28T14:25:50.035Z,7.92
2022-11-28T14:28:26.340Z,7.91
2022-11-28T14:31:31.032Z,7.83
2022-11-28T14:34:00.698Z,7.85
2022-11-28T14:36:33.940Z,7.84
2022-11-28T14:39:07.372Z,7.72
2022-11-28T14:42:03.627Z,7.70
2022-11-28T14:44:50.677Z,7.72
2022-11-28T14:47:42.933Z,7.72
2022-11-28T14:50:09.682Z,7.74
2022-11-28T14:52:41.700Z,7.76
2022-11-28T14:55:12.950Z,7.73
2022-11-28T14:57:58.510Z,7.72
2022-11-28T15:00:31.818Z,7.75
2022-11-28T15:03:37.817Z,7.76
2022-11-28T15:06:20.806Z,7.72
2022-11-28T15:09:00.097Z,7.72
2022-11-28T15:11:37.429Z,7.70
2022-11-28T15:14:22.757Z,7.67
2022-11-28T15:16:53.069Z,7.70
2022-11-28T15:19:30.627Z,7.68
2022-11-28T15:21:57.507Z,7.68
2022-11-28T15:24:33.097Z,7.69
2022-11-28T15:27:08.810Z,7.74
2022-11-28T15:29:36.733Z,7.73
2022-11-28T15:32:04.919Z,7.73
2022-11-28T15:34:34.201Z,7.73
2022-11-28T15:37:05.595Z,7.74
2022-11-28T15:39:35.770Z,7.73
2022-11-28T15:42:05.083Z,7.72
2022-11-28T15:44:32.318Z,7.71
2022-11-28T15:47:01.433Z,7.72
2022-11-28T15:49:32.788Z,7.70
2022-11-28T15:52:02.756Z,7.72
2022-11-28T15:54:36.801Z,7.73
2022-11-28T15:57:05.275Z,7.74
2022-11-28T15:59:32.952Z,7.73
2022-11-28T16:02:15.083Z,7.72
2022-11-28T16:04:44.100Z,7.73
2022-11-28T16:07:14.876Z,7.74
2022-11-28T16:09:53.613Z,7.74
2022-11-28T16:12:20.167Z,7.74
2022-11-28T16:14:46.964Z,7.75
2022-11-28T16:17:19.983Z,7.76
2022-11-28T16:19:46.630Z,7.75
2022-11-28T16:22:19.436Z,7.75
2022-11-28T16:24:48.966Z,7.75
2022-11-28T16:27:38.873Z,7.76
2022-11-28T16:30:24.056Z,7.76
2022-11-28T16:32:52.259Z,7.77
2022-11-28T16:35:31.994Z,7.76
2022-11-28T16:38:25.102Z,7.75
2022-11-28T16:40:58.673Z,7.75
2022-11-28T16:43:36.326Z,7.77
2022-11-28T16:46:06.655Z,7.74
2022-11-28T16:48:38.332Z,7.72
2022-11-28T16:51:10.797Z,7.71
2022-11-28T16:53:45.946Z,7.70
2022-11-28T16:56:24.449Z,7.68
2022-11-28T16:59:12.279Z,7.66
2022-11-28T17:01:39.486Z,7.67
2022-11-28T17:04:06.376Z,7.69
2022-11-28T17:06:37.302Z,7.71
2022-11-28T17:09:09.782Z,7.73
2022-11-28T17:11:39.780Z,7.74
2022-11-28T17:14:13.037Z,7.74
2022-11-28T17:16:41.472Z,7.74
2022-11-28T17:19:07.939Z,7.75
2022-11-28T17:21:40.572Z,7.73
2022-11-28T17:24:15.933Z,7.71
2022-11-28T17:26:42.386Z,7.72
2022-11-28T17:29:13.252Z,7.74
2022-11-28T17:31:42.103Z,7.74
2022-11-28T17:34:19.008Z,7.75
2022-11-28T17:36:45.696Z,7.73
2022-11-28T17:39:17.126Z,7.72
2022-11-28T17:41:44.413Z,7.74
2022-11-28T17:44:17.646Z,7.74
2022-11-28T17:46:44.111Z,7.74
2022-11-28T17:49:10.703Z,7.74
2022-11-28T17:51:37.699Z,7.73
2022-11-28T17:54:04.444Z,7.74
2022-11-28T17:56:32.382Z,7.73
2022-11-28T17:59:00.232Z,7.74
2022-11-28T18:01:29.204Z,7.72
2022-11-28T18:03:58.920Z,7.73
2022-11-28T18:06:25.474Z,7.74
2022-11-28T18:08:53.261Z,7.74
2022-11-28T18:11:20.477Z,7.72
2022-11-28T18:13:47.823Z,7.69
2022-11-28T18:16:17.242Z,7.66
2022-11-28T18:18:44.238Z,7.68
2022-11-28T18:21:11.254Z,7.68
2022-11-28T18:23:39.717Z,7.68
2022-11-28T18:26:13.102Z,7.71
2022-11-28T18:28:41.201Z,7.73
2022-11-28T18:31:29.101Z,7.73
2022-11-28T18:34:01.623Z,7.70
2022-11-28T18:36:32.289Z,7.70
2022-11-28T18:39:01.524Z,7.72
2022-11-28T18:41:28.991Z,7.71
2022-11-28T18:43:57.043Z,7.70
2022-11-28T18:46:25.148Z,7.70
2022-11-28T18:48:52.142Z,7.70
2022-11-28T18:51:27.611Z,7.71
2022-11-28T18:53:55.922Z,7.68
2022-11-28T18:56:23.437Z,7.67
2022-11-28T18:58:51.785Z,7.67
2022-11-28T19:01:28.204Z,7.69
2022-11-28T19:03:58.011Z,7.69
2022-11-28T19:06:24.818Z,7.68
2022-11-28T19:09:00.201Z,7.68
2022-11-28T19:11:29.284Z,7.67
2022-11-28T19:13:56.369Z,7.68
2022-11-28T19:16:35.147Z,7.68
2022-11-28T19:19:03.661Z,7.67
2022-11-28T19:21:32.779Z,7.67
2022-11-28T19:24:00.621Z,7.66
2022-11-28T19:26:30.471Z,7.68
2022-11-28T19:28:59.848Z,7.70
2022-11-28T19:31:29.329Z,7.70
2022-11-28T19:34:02.135Z,7.68
2022-11-28T19:36:33.063Z,7.68
2022-11-28T19:38:59.861Z,7.72
2022-11-28T19:41:28.069Z,7.72
2022-11-28T19:43:55.298Z,7.73
2022-11-28T19:46:21.974Z,7.75
2022-11-28T19:48:49.500Z,7.74
2022-11-28T19:51:15.986Z,7.75
2022-11-28T19:53:43.326Z,7.74
2022-11-28T19:56:16.931Z,7.75
2022-11-28T19:58:44.357Z,7.76
2022-11-28T20:01:15.303Z,7.77
2022-11-28T20:03:42.637Z,7.80
2022-11-28T20:06:10.967Z,7.80
2022-11-28T20:08:38.821Z,7.81
2022-11-28T20:11:13.043Z,7.82
2022-11-28T20:13:40.694Z,7.82
2022-11-28T20:16:08.815Z,7.80
2022-11-28T20:18:40.948Z,7.77
2022-11-28T20:21:19.320Z,7.75
2022-11-28T20:23:51.465Z,7.73
2022-11-28T20:26:20.148Z,7.66
2022-11-28T20:28:47.580Z,7.64
2022-11-28T20:31:31.686Z,7.67
2022-11-28T20:33:58.495Z,7.67
2022-11-28T20:36:26.515Z,7.66
2022-11-28T20:38:54.346Z,7.65
2022-11-28T20:41:22.797Z,7.68
2022-11-28T20:43:49.185Z,7.71
2022-11-28T20:46:21.901Z,7.74
2022-11-28T20:48:49.567Z,7.76
2022-11-28T20:51:19.134Z,7.80
2022-11-28T20:53:45.765Z,7.81
2022-11-28T20:56:18.283Z,7.82
2022-11-28T20:58:45.717Z,7.82
2022-11-28T21:01:17.897Z,7.82
2022-11-28T21:03:44.559Z,7.83
2022-11-28T21:06:12.183Z,7.84
2022-11-28T21:08:38.846Z,7.82
2022-11-28T21:11:11.210Z,7.83
2022-11-28T21:13:38.035Z,7.84
2022-11-28T21:16:06.944Z,7.85
2022-11-28T21:18:34.211Z,7.87
2022-11-28T21:21:10.493Z,7.86
2022-11-28T21:23:38.118Z,7.82
2022-11-28T21:26:15.836Z,7.84
2022-11-28T21:28:44.763Z,7.83
2022-11-28T21:31:14.071Z,7.82
2022-11-28T21:33:40.753Z,7.82
2022-11-28T21:36:08.061Z,7.83
2022-11-28T21:38:35.438Z,7.85
2022-11-28T21:41:02.178Z,7.85
2022-11-28T21:43:29.566Z,7.84
2022-11-28T21:46:07.137Z,7.88
2022-11-28T21:48:35.550Z,7.90
2022-11-28T21:51:03.587Z,7.89
2022-11-28T21:53:31.266Z,7.90
2022-11-28T21:56:03.242Z,7.91
2022-11-28T21:58:30.656Z,7.91
2022-11-28T22:01:02.734Z,7.92
2022-11-28T22:03:30.779Z,7.92
2022-11-28T22:06:21.876Z,7.93
2022-11-28T22:08:48.949Z,7.90
2022-11-28T22:11:15.948Z,7.89
2022-11-28T22:13:45.761Z,7.88
2022-11-28T22:16:16.589Z,7.88
2022-11-28T22:18:44.408Z,7.91
2022-11-28T22:21:43.383Z,7.92
2022-11-28T22:23:58.333Z,7.92
2022-11-28T22:26:24.859Z,7.93
2022-11-28T22:28:53.944Z,7.93
2022-11-28T22:31:22.796Z,7.93
2022-11-28T22:33:50.259Z,7.96
2022-11-28T22:36:19.058Z,7.97
2022-11-28T22:38:47.509Z,7.98
2022-11-28T22:41:20.791Z,7.97
2022-11-28T22:43:54.301Z,7.96
2022-11-28T22:46:20.886Z,7.95
2022-11-28T22:48:47.811Z,7.93
2022-11-28T22:51:22.785Z,7.93
2022-11-28T22:53:56.431Z,7.92
2022-11-28T22:56:26.866Z,7.91
2022-11-28T22:58:53.728Z,7.92
2022-11-28T23:01:24.042Z,7.93
2022-11-28T23:03:51.761Z,7.89
2022-11-28T23:06:20.964Z,7.90
2022-11-28T23:08:53.857Z,7.88
2022-11-28T23:11:23.606Z,7.87
2022-11-28T23:13:51.166Z,7.85
2022-11-28T23:16:19.619Z,7.86
2022-11-28T23:18:49.816Z,7.86
2022-11-28T23:21:17.355Z,7.86
2022-11-28T23:23:45.822Z,7.85
2022-11-28T23:26:18.194Z,7.83
2022-11-28T23:28:44.999Z,7.83
2022-11-28T23:31:17.823Z,7.84
2022-11-28T23:33:45.835Z,7.86
2022-11-28T23:36:16.701Z,7.87
2022-11-28T23:38:44.477Z,7.87
2022-11-28T23:41:11.878Z,7.88
2022-11-28T23:43:38.843Z,7.89
2022-11-28T23:46:06.337Z,7.89
2022-11-28T23:48:33.529Z,7.87
2022-11-28T23:50:59.959Z,7.87
2022-11-28T23:53:26.605Z,7.88
2022-11-28T23:55:53.049Z,7.89
2022-11-28T23:58:19.584Z,7.87
